Atqasuk Edward Burnell Sr Memorial Airport Atqasuk US
ICAO: PATQ
IATA:
Category: Medium
Scheduled Services:

Elevation: 96 ft
TransAlt. 18000 ft.

Airport Communications:
ASOS:119.925
ANCHORAGE CNTR:135.3
CTAF:122.9
BARROW RDO:122.2

PATQ Zoom In..

If you have problems with the map follow the link
https://www.worldairports.se/pages/airport.php?
ICAO=PATQ

Runways:

(A) RW 06 length 4370 ft width 90 ft
---- / hdg 61

(B) RW 24 length 4370 ft width 90 ft
---- / hdg 241

Location; PATQ
Day. 19 / Time. 00.56 Zulu
* Altimeter: 29.77
* Temperature: -20° c. 4°f.
* Wind from: 080° Speed 09 kn.
Dewpoint: -22° c.
Visibility: 10 Statute Miles.
Clouds: Clear (automated report).

PATQ 190056Z AUTO 08009KT 10SM CLR M20/M22 A2977 RMK AO2 SNE24 SLP087 P0000 T12001222 FZRANO TSNO


Wind From 080°
Speed 09 kn.

 
 
jpsmedia worldairports.se 2020   terms of use